createdAt,value
2024-01-22T00:00:33.642Z,3.50
2024-01-22T00:01:33.561Z,3.49
2024-01-22T00:02:33.666Z,3.51
2024-01-22T00:03:33.607Z,3.50
2024-01-22T00:04:33.572Z,3.47
2024-01-22T00:05:33.640Z,3.48
2024-01-22T00:06:33.693Z,3.46
2024-01-22T00:07:33.597Z,3.43
2024-01-22T00:08:33.597Z,3.40
2024-01-22T00:09:33.584Z,3.39
2024-01-22T00:10:33.644Z,3.39
2024-01-22T00:11:33.642Z,3.38
2024-01-22T00:12:33.610Z,3.37
2024-01-22T00:13:33.580Z,3.33
2024-01-22T00:14:33.596Z,3.33
2024-01-22T00:15:33.599Z,3.32
2024-01-22T00:16:33.605Z,3.31
2024-01-22T00:17:33.652Z,3.32
2024-01-22T00:18:33.732Z,3.32
2024-01-22T00:19:33.636Z,3.32
2024-01-22T00:20:33.595Z,3.33
2024-01-22T00:21:33.590Z,3.34
2024-01-22T00:22:33.583Z,3.33
2024-01-22T00:23:33.648Z,3.33
2024-01-22T00:24:33.586Z,3.33
2024-01-22T00:25:33.596Z,3.33
2024-01-22T00:26:33.629Z,3.36
2024-01-22T00:27:33.651Z,3.40
2024-01-22T00:28:33.590Z,3.38
2024-01-22T00:29:33.573Z,3.41
2024-01-22T00:30:33.614Z,3.38
2024-01-22T00:31:33.592Z,3.43
2024-01-22T00:32:33.708Z,3.45
2024-01-22T00:33:33.703Z,3.46
2024-01-22T00:34:33.614Z,3.48
2024-01-22T00:35:33.666Z,3.51
2024-01-22T00:36:33.597Z,3.48
2024-01-22T00:37:33.599Z,3.50
2024-01-22T00:38:33.750Z,3.52
2024-01-22T00:39:33.597Z,3.56
2024-01-22T00:40:33.588Z,3.56
2024-01-22T00:41:33.632Z,3.63
2024-01-22T00:42:33.617Z,3.67
2024-01-22T00:43:33.618Z,3.69
2024-01-22T00:44:33.683Z,3.68
2024-01-22T00:45:33.625Z,3.72
2024-01-22T00:46:35.458Z,3.76
2024-01-22T00:47:33.715Z,3.77
2024-01-22T00:48:33.798Z,3.79
2024-01-22T00:49:33.756Z,3.82
2024-01-22T00:50:33.744Z,3.79
2024-01-22T00:51:33.698Z,3.79
2024-01-22T00:52:33.725Z,3.77
2024-01-22T00:53:33.822Z,3.76
2024-01-22T00:54:33.735Z,3.74
2024-01-22T00:55:33.721Z,3.71
2024-01-22T00:56:33.768Z,3.70
2024-01-22T00:57:33.774Z,3.73
2024-01-22T00:58:33.891Z,3.73
2024-01-22T00:59:33.800Z,3.76
2024-01-22T01:00:33.799Z,3.77
2024-01-22T01:01:33.828Z,3.79
2024-01-22T01:02:33.824Z,3.77
2024-01-22T01:03:33.944Z,3.81
2024-01-22T01:04:33.884Z,3.83
2024-01-22T01:05:33.951Z,3.87
2024-01-22T01:06:33.887Z,3.88
2024-01-22T01:07:33.896Z,3.88
2024-01-22T01:08:33.947Z,3.87
2024-01-22T01:09:33.914Z,3.87
2024-01-22T01:10:33.922Z,3.87
2024-01-22T01:11:34.001Z,3.90
2024-01-22T01:12:33.941Z,3.91
2024-01-22T01:13:33.965Z,3.91
2024-01-22T01:14:34.028Z,3.91
2024-01-22T01:15:33.962Z,3.92
2024-01-22T01:16:34.004Z,3.94
2024-01-22T01:17:34.106Z,3.92
2024-01-22T01:18:34.218Z,3.95
2024-01-22T01:19:34.134Z,3.99
2024-01-22T01:20:34.097Z,4.02
2024-01-22T01:21:34.044Z,4.02
2024-01-22T01:22:34.062Z,4.02
2024-01-22T01:23:34.104Z,4.10
2024-01-22T01:24:34.112Z,4.13
2024-01-22T01:25:34.104Z,4.19
2024-01-22T01:26:34.214Z,4.21
2024-01-22T01:27:34.129Z,4.21
2024-01-22T01:28:34.120Z,4.22
2024-01-22T01:29:34.205Z,4.17
2024-01-22T01:30:34.185Z,4.20
2024-01-22T01:31:34.159Z,4.22
2024-01-22T01:32:34.274Z,4.23
2024-01-22T01:33:34.274Z,4.26
2024-01-22T01:34:34.288Z,4.29
2024-01-22T01:35:34.265Z,4.33
2024-01-22T01:37:34.253Z,4.43
2024-01-22T01:38:34.303Z,4.46
2024-01-22T01:39:34.262Z,4.48
2024-01-22T01:40:34.306Z,4.52
2024-01-22T01:41:34.389Z,4.56
2024-01-22T01:42:34.275Z,4.53
2024-01-22T01:43:34.300Z,4.50
2024-01-22T01:44:34.308Z,4.47
2024-01-22T01:45:34.293Z,4.46
2024-01-22T01:46:34.345Z,4.46
2024-01-22T01:47:34.349Z,4.47
2024-01-22T01:48:34.407Z,4.49
2024-01-22T01:49:34.357Z,4.51
2024-01-22T01:50:34.309Z,4.51
2024-01-22T01:51:34.331Z,4.51
2024-01-22T01:52:34.280Z,4.59
2024-01-22T01:53:34.368Z,4.57
2024-01-22T01:55:15.541Z,4.57
2024-01-22T01:56:15.532Z,4.54
2024-01-22T01:57:15.557Z,4.53
2024-01-22T01:58:15.557Z,4.52
2024-01-22T01:59:15.497Z,4.54
2024-01-22T02:00:15.569Z,4.57
2024-01-22T02:01:15.576Z,4.54
2024-01-22T02:02:15.647Z,4.54
2024-01-22T02:03:15.625Z,4.52
2024-01-22T02:04:15.517Z,4.55
2024-01-22T02:05:15.526Z,4.58
2024-01-22T02:06:15.573Z,4.62
2024-01-22T02:07:15.691Z,4.67
2024-01-22T02:08:15.526Z,4.65
2024-01-22T02:09:15.553Z,4.68
2024-01-22T02:10:15.526Z,4.70
2024-01-22T02:11:15.522Z,4.70
2024-01-22T02:12:15.622Z,4.65
2024-01-22T02:13:15.507Z,4.67
2024-01-22T02:14:15.553Z,4.66
2024-01-22T02:15:15.619Z,4.64
2024-01-22T02:16:15.544Z,4.68
2024-01-22T02:17:15.564Z,4.70
2024-01-22T02:18:15.638Z,4.70
2024-01-22T02:19:15.689Z,4.68
2024-01-22T02:20:15.557Z,4.68
2024-01-22T02:21:15.586Z,4.69
2024-01-22T02:22:15.552Z,4.74
2024-01-22T02:23:15.570Z,4.79
2024-01-22T02:24:15.642Z,4.80
2024-01-22T02:25:15.563Z,4.80
2024-01-22T02:26:15.675Z,4.79
2024-01-22T02:27:15.646Z,4.79
2024-01-22T02:28:15.535Z,4.82
2024-01-22T02:29:15.552Z,4.85
2024-01-22T02:30:15.660Z,4.86
2024-01-22T02:31:15.577Z,4.92
2024-01-22T02:32:15.573Z,4.92
2024-01-22T02:33:15.605Z,4.90
2024-01-22T02:34:15.684Z,4.85
2024-01-22T02:35:15.709Z,4.84
2024-01-22T02:36:15.764Z,4.85
2024-01-22T02:37:15.759Z,4.85
2024-01-22T02:38:15.732Z,4.84
2024-01-22T02:39:15.848Z,4.82
2024-01-22T02:40:15.761Z,4.81
2024-01-22T02:41:15.783Z,4.79
2024-01-22T02:42:15.889Z,4.82
2024-01-22T02:43:15.812Z,4.81
2024-01-22T02:44:15.824Z,4.81
2024-01-22T02:45:15.925Z,4.84
2024-01-22T02:46:15.881Z,4.80
2024-01-22T02:47:15.910Z,4.79
2024-01-22T02:48:15.977Z,4.77
2024-01-22T02:49:16.003Z,4.76
2024-01-22T02:50:15.881Z,4.77
2024-01-22T02:51:15.951Z,4.79
2024-01-22T02:52:15.892Z,4.75
2024-01-22T02:53:15.982Z,4.75
2024-01-22T02:54:15.983Z,4.76
2024-01-22T02:55:18.918Z,4.74
2024-01-22T02:56:15.926Z,4.73
2024-01-22T02:57:16.009Z,4.70
2024-01-22T02:58:15.961Z,4.67
2024-01-22T02:59:15.972Z,4.65
2024-01-22T03:00:15.969Z,4.63
2024-01-22T03:01:16.024Z,4.65
2024-01-22T03:02:15.952Z,4.65
2024-01-22T03:03:16.014Z,4.62
2024-01-22T03:04:16.010Z,4.61
2024-01-22T03:05:15.986Z,4.62
2024-01-22T03:06:16.069Z,4.63
2024-01-22T03:07:16.007Z,4.65
2024-01-22T03:08:15.967Z,4.64
2024-01-22T03:09:16.056Z,4.62
2024-01-22T03:10:15.972Z,4.62
2024-01-22T03:11:15.945Z,4.62
2024-01-22T03:12:16.020Z,4.60
2024-01-22T03:13:15.930Z,4.57
2024-01-22T03:14:16.041Z,4.55
2024-01-22T03:15:16.070Z,4.50
2024-01-22T03:16:15.944Z,4.49
2024-01-22T03:17:15.946Z,4.49
2024-01-22T03:18:16.056Z,4.50
2024-01-22T03:19:16.091Z,4.51
2024-01-22T03:20:15.966Z,4.51
2024-01-22T03:21:16.049Z,4.55
2024-01-22T03:22:16.016Z,4.53
2024-01-22T03:23:16.031Z,4.58
2024-01-22T03:24:16.146Z,4.61
2024-01-22T03:25:16.067Z,4.62
2024-01-22T03:26:16.037Z,4.63
2024-01-22T03:27:16.149Z,4.66
2024-01-22T03:28:16.082Z,4.65
2024-01-22T03:29:16.121Z,4.66
2024-01-22T03:30:16.250Z,4.66
2024-01-22T03:31:16.104Z,4.68
2024-01-22T03:32:16.132Z,4.72
2024-01-22T03:33:16.206Z,4.81
2024-01-22T03:34:16.282Z,4.83
2024-01-22T03:35:16.199Z,4.88
2024-01-22T03:36:16.262Z,4.89
2024-01-22T03:37:16.188Z,4.92
2024-01-22T03:38:16.198Z,4.91
2024-01-22T03:39:16.274Z,4.91
2024-01-22T03:40:16.210Z,4.91
2024-01-22T03:41:16.258Z,4.90
2024-01-22T03:42:16.408Z,4.91
2024-01-22T03:43:16.290Z,4.92
2024-01-22T03:44:16.296Z,4.92
2024-01-22T03:45:16.336Z,4.91
2024-01-22T03:46:16.315Z,4.88
2024-01-22T03:47:16.295Z,4.88
2024-01-22T03:48:16.454Z,4.89
2024-01-22T03:49:16.677Z,4.92
2024-01-22T03:50:16.371Z,4.91
2024-01-22T03:51:16.376Z,4.91
2024-01-22T03:52:16.349Z,4.91
2024-01-22T03:53:16.360Z,4.91
2024-01-22T03:54:16.456Z,4.91
2024-01-22T03:55:16.438Z,4.92
2024-01-22T03:56:16.418Z,4.93
2024-01-22T03:57:16.720Z,4.94
2024-01-22T03:58:16.451Z,4.89
2024-01-22T03:59:16.457Z,4.93
2024-01-22T04:00:16.540Z,4.92
2024-01-22T04:01:16.556Z,4.92
2024-01-22T04:02:16.516Z,4.93
2024-01-22T04:03:16.544Z,4.93
2024-01-22T04:04:16.621Z,4.92
2024-01-22T04:05:16.548Z,4.92
2024-01-22T04:06:16.587Z,4.96
2024-01-22T04:07:16.681Z,4.99
2024-01-22T04:08:16.588Z,5.03
2024-01-22T04:09:16.655Z,5.05
2024-01-22T04:10:16.575Z,5.06
2024-01-22T04:11:16.602Z,5.09
2024-01-22T04:12:16.679Z,5.11
2024-01-22T04:13:16.629Z,5.12
2024-01-22T04:14:16.644Z,5.16
2024-01-22T04:15:16.767Z,5.21
2024-01-22T04:16:16.651Z,5.22
2024-01-22T04:17:16.687Z,5.26
2024-01-22T04:18:16.784Z,5.32
2024-01-22T04:19:16.860Z,5.35
2024-01-22T04:20:16.696Z,5.37
2024-01-22T04:21:16.894Z,5.36
2024-01-22T04:22:16.721Z,5.36
2024-01-22T04:23:16.747Z,5.41
2024-01-22T04:24:16.866Z,5.41
2024-01-22T04:25:16.750Z,5.41
2024-01-22T04:26:16.773Z,5.39
2024-01-22T04:27:16.867Z,5.45
2024-01-22T04:28:16.788Z,5.48
2024-01-22T04:29:16.849Z,5.52
2024-01-22T04:30:16.854Z,5.55
2024-01-22T04:31:16.837Z,5.60
2024-01-22T04:32:16.861Z,5.62
2024-01-22T04:33:16.946Z,5.66
2024-01-22T04:34:16.972Z,5.71
2024-01-22T04:35:16.898Z,5.80
2024-01-22T04:36:17.177Z,5.88
2024-01-22T04:37:16.928Z,5.94
2024-01-22T04:38:16.933Z,5.99
2024-01-22T04:39:17.003Z,6.06
2024-01-22T04:40:16.974Z,6.13
2024-01-22T04:41:16.995Z,6.18
2024-01-22T04:42:17.022Z,6.23
2024-01-22T04:43:16.961Z,6.25
2024-01-22T04:44:17.017Z,6.25
2024-01-22T04:45:17.126Z,6.25
2024-01-22T04:46:16.990Z,6.21
2024-01-22T04:47:17.029Z,6.20
2024-01-22T04:48:17.083Z,6.23
2024-01-22T04:49:17.096Z,6.25
2024-01-22T04:50:17.100Z,6.27
2024-01-22T04:51:17.167Z,6.28
2024-01-22T04:52:17.096Z,6.35
2024-01-22T04:53:17.080Z,6.39
2024-01-22T04:54:17.148Z,6.40
2024-01-22T04:55:21.190Z,6.43
2024-01-22T04:56:17.094Z,6.44
2024-01-22T04:57:17.190Z,6.45
2024-01-22T04:58:17.109Z,6.43
2024-01-22T04:59:17.206Z,6.44
2024-01-22T05:00:17.187Z,6.43
2024-01-22T05:01:17.171Z,6.40
2024-01-22T05:02:17.107Z,6.43
2024-01-22T05:03:17.178Z,6.46
2024-01-22T05:04:17.215Z,6.44
2024-01-22T05:05:17.305Z,6.44
2024-01-22T05:06:17.317Z,6.44
2024-01-22T05:07:17.176Z,6.41
2024-01-22T05:08:17.127Z,6.36
2024-01-22T05:09:17.160Z,6.36
2024-01-22T05:10:17.211Z,6.35
2024-01-22T05:11:17.152Z,6.37
2024-01-22T05:12:17.155Z,6.39
2024-01-22T05:13:17.144Z,6.39
2024-01-22T05:14:17.133Z,6.36
2024-01-22T05:15:17.233Z,6.31
2024-01-22T05:16:17.119Z,6.34
2024-01-22T05:17:17.147Z,6.36
2024-01-22T05:18:17.948Z,6.33
2024-01-22T05:19:17.234Z,6.31
2024-01-22T05:20:17.140Z,6.29
2024-01-22T05:21:17.189Z,6.25
2024-01-22T05:22:17.134Z,6.21
2024-01-22T05:23:17.151Z,6.18
2024-01-22T05:24:17.230Z,6.16
2024-01-22T05:25:17.153Z,6.16
2024-01-22T05:26:17.153Z,6.21
2024-01-22T05:27:17.232Z,6.21
2024-01-22T05:28:17.166Z,6.19
2024-01-22T05:29:17.139Z,6.15
2024-01-22T05:30:17.296Z,6.13
2024-01-22T05:31:17.184Z,6.13
2024-01-22T05:32:17.178Z,6.12
2024-01-22T05:33:17.228Z,6.13
2024-01-22T05:34:17.181Z,6.13
2024-01-22T05:35:17.162Z,6.15
2024-01-22T05:36:17.240Z,6.13
2024-01-22T05:37:17.136Z,6.13
2024-01-22T05:38:17.262Z,6.15
2024-01-22T05:39:17.248Z,6.19
2024-01-22T05:40:17.189Z,6.18
2024-01-22T05:41:17.184Z,6.21
2024-01-22T05:42:17.217Z,6.20
2024-01-22T05:43:17.191Z,6.20
2024-01-22T05:44:17.175Z,6.17
2024-01-22T05:45:17.404Z,6.21
2024-01-22T05:46:17.198Z,6.19
2024-01-22T05:47:17.170Z,6.18
2024-01-22T05:48:17.256Z,6.20
2024-01-22T05:49:17.391Z,6.22
2024-01-22T05:50:17.248Z,6.20
2024-01-22T05:51:17.249Z,6.17
2024-01-22T05:52:17.208Z,6.16
2024-01-22T05:53:17.163Z,6.16
2024-01-22T05:54:17.244Z,6.16
2024-01-22T05:55:19.671Z,6.19
2024-01-22T05:56:17.211Z,6.21
2024-01-22T05:57:17.283Z,6.22
2024-01-22T05:58:17.158Z,6.24
2024-01-22T05:59:17.171Z,6.25
2024-01-22T06:00:17.250Z,6.23
2024-01-22T06:01:18.732Z,6.25
2024-01-22T06:02:17.177Z,6.26
2024-01-22T06:03:17.184Z,6.26
2024-01-22T06:04:17.288Z,6.23
2024-01-22T06:05:17.245Z,6.26
2024-01-22T06:06:17.274Z,6.28
2024-01-22T06:07:17.197Z,6.30
2024-01-22T06:08:17.224Z,6.31
2024-01-22T06:09:17.270Z,6.31
2024-01-22T06:10:17.306Z,6.32
2024-01-22T06:11:17.181Z,6.31
2024-01-22T06:12:17.312Z,6.29
2024-01-22T06:13:17.207Z,6.26
2024-01-22T06:14:17.188Z,6.25
2024-01-22T06:15:17.375Z,6.30
2024-01-22T06:16:17.193Z,6.32
2024-01-22T06:17:17.202Z,6.36
2024-01-22T06:18:17.299Z,6.39
2024-01-22T06:19:17.297Z,6.43
2024-01-22T06:20:17.267Z,6.46
2024-01-22T06:21:17.322Z,6.49
2024-01-22T06:22:17.229Z,6.50
2024-01-22T06:23:17.212Z,6.48
2024-01-22T06:24:17.336Z,6.43
2024-01-22T06:25:17.244Z,6.40
2024-01-22T06:26:17.359Z,6.42
2024-01-22T06:27:17.286Z,6.42
2024-01-22T06:28:17.222Z,6.44
2024-01-22T06:29:17.203Z,6.47
2024-01-22T06:30:17.337Z,6.45
2024-01-22T06:31:17.274Z,6.42
2024-01-22T06:32:17.240Z,6.41
2024-01-22T06:33:17.339Z,6.43
2024-01-22T06:34:17.361Z,6.40
2024-01-22T06:35:17.217Z,6.39
2024-01-22T06:36:17.370Z,6.40
2024-01-22T06:37:17.239Z,6.42
2024-01-22T06:38:17.406Z,6.45
2024-01-22T06:39:17.300Z,6.46
2024-01-22T06:40:17.219Z,6.46
2024-01-22T06:41:17.216Z,6.48
2024-01-22T06:42:23.523Z,6.48
2024-01-22T06:43:17.244Z,6.50
2024-01-22T06:44:17.268Z,6.48
2024-01-22T06:45:17.203Z,6.46
2024-01-22T06:46:17.223Z,6.49
2024-01-22T06:47:17.238Z,6.48
2024-01-22T06:48:17.384Z,6.46
2024-01-22T06:49:17.346Z,6.48
2024-01-22T06:50:17.246Z,6.56
2024-01-22T06:51:18.868Z,6.59
2024-01-22T06:52:17.203Z,6.56
2024-01-22T06:53:17.224Z,6.57
2024-01-22T06:54:19.720Z,6.55
2024-01-22T06:55:17.235Z,6.52
2024-01-22T06:56:17.228Z,6.52
2024-01-22T06:57:17.306Z,6.49
2024-01-22T06:58:17.243Z,6.49
2024-01-22T06:59:17.236Z,6.48
2024-01-22T07:00:17.416Z,6.49
2024-01-22T07:01:17.271Z,6.48
2024-01-22T07:02:17.240Z,6.48
2024-01-22T07:03:17.407Z,6.49
2024-01-22T07:04:17.354Z,6.49
2024-01-22T07:05:17.336Z,6.56
2024-01-22T07:06:17.305Z,6.59
2024-01-22T07:07:17.268Z,6.63
2024-01-22T07:08:17.258Z,6.64
2024-01-22T07:09:17.330Z,6.61
2024-01-22T07:10:17.251Z,6.64
2024-01-22T07:11:17.233Z,6.67
2024-01-22T07:12:17.301Z,6.67
2024-01-22T07:13:17.241Z,6.68
2024-01-22T07:14:17.262Z,6.66
2024-01-22T07:15:17.488Z,6.63
2024-01-22T07:16:17.304Z,6.62
2024-01-22T07:17:17.212Z,6.64
2024-01-22T07:18:17.362Z,6.64
2024-01-22T07:19:17.322Z,6.65
2024-01-22T07:20:17.637Z,6.68
2024-01-22T07:21:17.304Z,6.70
2024-01-22T07:22:17.232Z,6.74
2024-01-22T07:23:17.235Z,6.72
2024-01-22T07:24:17.449Z,6.70
2024-01-22T07:25:17.785Z,6.68
2024-01-22T07:26:17.402Z,6.69
2024-01-22T07:27:17.314Z,6.73
2024-01-22T07:28:17.278Z,6.75
2024-01-22T07:29:17.252Z,6.76
2024-01-22T07:30:17.532Z,6.77
2024-01-22T07:31:17.249Z,6.78
2024-01-22T07:32:17.238Z,6.79
2024-01-22T07:33:17.329Z,6.81
2024-01-22T07:34:17.426Z,6.80
2024-01-22T07:35:17.393Z,6.81
2024-01-22T07:36:17.309Z,6.83
2024-01-22T07:37:54.489Z,6.85
2024-01-22T07:38:54.511Z,6.87
2024-01-22T07:39:54.465Z,6.90
2024-01-22T07:40:56.345Z,6.94
2024-01-22T07:41:54.518Z,6.97
2024-01-22T07:42:54.447Z,6.96
2024-01-22T07:43:54.485Z,6.98
2024-01-22T07:44:54.473Z,6.99
2024-01-22T07:45:54.472Z,6.98
2024-01-22T07:46:54.494Z,6.98
2024-01-22T07:47:54.499Z,6.97
2024-01-22T07:48:54.594Z,6.98
2024-01-22T07:49:54.563Z,7.01
2024-01-22T07:50:54.502Z,6.99
2024-01-22T07:51:54.476Z,7.00
2024-01-22T07:52:54.487Z,6.99
2024-01-22T07:53:54.454Z,7.02
2024-01-22T07:54:54.452Z,7.04
2024-01-22T07:55:54.494Z,7.04
2024-01-22T07:56:54.558Z,7.06
2024-01-22T07:57:54.515Z,7.09
2024-01-22T07:58:54.517Z,7.06
2024-01-22T07:59:54.491Z,7.04
2024-01-22T08:00:54.512Z,7.05
2024-01-22T08:01:55.328Z,7.05
2024-01-22T08:02:54.529Z,7.07
2024-01-22T08:03:54.517Z,7.07
2024-01-22T08:04:54.520Z,7.10
2024-01-22T08:05:54.593Z,7.12
2024-01-22T08:06:56.887Z,7.15
2024-01-22T08:07:55.450Z,7.15
2024-01-22T08:08:54.590Z,7.16
2024-01-22T08:09:54.473Z,7.17
2024-01-22T08:10:54.476Z,7.17
2024-01-22T08:11:54.494Z,7.17
2024-01-22T08:12:54.547Z,7.19
2024-01-22T08:13:54.512Z,7.21
2024-01-22T08:14:54.671Z,7.26
2024-01-22T08:15:54.643Z,7.29
2024-01-22T08:16:54.623Z,7.29
2024-01-22T08:17:54.722Z,7.30
2024-01-22T08:18:54.760Z,7.30
2024-01-22T08:19:54.809Z,7.33
2024-01-22T08:20:54.695Z,7.33
2024-01-22T08:21:54.701Z,7.35
2024-01-22T08:22:54.771Z,7.33
2024-01-22T08:23:54.802Z,7.37
2024-01-22T08:24:54.737Z,7.43
2024-01-22T08:25:54.746Z,7.47
2024-01-22T08:26:54.745Z,7.47
2024-01-22T08:27:54.772Z,7.44
2024-01-22T08:28:54.801Z,7.47
2024-01-22T08:29:54.824Z,7.46
2024-01-22T08:30:54.797Z,7.48
2024-01-22T08:31:54.820Z,7.51
2024-01-22T08:32:55.011Z,7.52
2024-01-22T08:33:55.125Z,7.57
2024-01-22T08:34:55.011Z,7.55
2024-01-22T08:35:54.956Z,7.56
2024-01-22T08:36:54.866Z,7.58
2024-01-22T08:37:55.021Z,7.60
2024-01-22T08:38:54.970Z,7.58
2024-01-22T08:39:54.894Z,7.62
2024-01-22T08:40:54.932Z,7.61
2024-01-22T08:41:54.951Z,7.62
2024-01-22T08:42:54.982Z,7.60
2024-01-22T08:43:54.954Z,7.58
2024-01-22T08:44:55.008Z,7.58
2024-01-22T08:45:55.001Z,7.56
2024-01-22T08:46:55.004Z,7.55
2024-01-22T08:47:55.131Z,7.53
2024-01-22T08:48:55.086Z,7.52
2024-01-22T08:49:55.023Z,7.52
2024-01-22T08:50:55.111Z,7.49
2024-01-22T08:51:55.044Z,7.51
2024-01-22T08:52:55.247Z,7.48
2024-01-22T08:53:55.123Z,7.47
2024-01-22T08:54:55.072Z,7.44
2024-01-22T08:55:57.691Z,7.46
2024-01-22T08:56:55.203Z,7.48
2024-01-22T08:57:55.515Z,7.47
2024-01-22T08:58:55.126Z,7.47
2024-01-22T08:59:55.134Z,7.43
2024-01-22T09:00:55.172Z,7.43
2024-01-22T09:01:55.188Z,7.45
2024-01-22T09:02:55.241Z,7.43
2024-01-22T09:03:55.146Z,7.41
2024-01-22T09:04:55.132Z,7.39
2024-01-22T09:05:55.254Z,7.38
2024-01-22T09:06:55.126Z,7.37
2024-01-22T09:07:57.161Z,7.38
2024-01-22T09:08:55.158Z,7.39
2024-01-22T09:09:55.105Z,7.40
2024-01-22T09:10:55.121Z,7.40
2024-01-22T09:11:55.157Z,7.40
2024-01-22T09:12:55.200Z,7.41
2024-01-22T09:13:55.148Z,7.41
2024-01-22T09:14:55.149Z,7.41
2024-01-22T09:15:55.095Z,7.40
2024-01-22T09:16:55.155Z,7.41
2024-01-22T09:17:55.308Z,7.41
2024-01-22T09:18:55.508Z,7.43
2024-01-22T09:19:55.184Z,7.42
2024-01-22T09:20:55.175Z,7.39
2024-01-22T09:21:55.101Z,7.39
2024-01-22T09:22:55.119Z,7.38
2024-01-22T09:23:55.144Z,7.37
2024-01-22T09:24:55.167Z,7.40
2024-01-22T09:25:55.149Z,7.39
2024-01-22T09:26:55.160Z,7.41
2024-01-22T09:27:55.168Z,7.41
2024-01-22T09:28:55.144Z,7.39
2024-01-22T09:29:55.219Z,7.40
2024-01-22T09:30:55.134Z,7.40
2024-01-22T09:31:55.148Z,7.38
2024-01-22T09:32:55.278Z,7.38
2024-01-22T09:33:57.453Z,7.37
2024-01-22T09:34:55.136Z,7.37
2024-01-22T09:35:55.168Z,7.35
2024-01-22T09:36:55.206Z,7.36
2024-01-22T09:37:55.146Z,7.42
2024-01-22T09:38:55.193Z,7.47
2024-01-22T09:39:55.128Z,7.49
2024-01-22T09:40:55.168Z,7.49
2024-01-22T09:41:55.152Z,7.50
2024-01-22T09:42:55.159Z,7.51
2024-01-22T09:43:55.169Z,7.49
2024-01-22T09:44:55.255Z,7.47
2024-01-22T09:45:55.317Z,7.44
2024-01-22T09:46:55.162Z,7.43
2024-01-22T09:47:55.257Z,7.41
2024-01-22T09:48:55.315Z,7.40
2024-01-22T09:49:55.208Z,7.37
2024-01-22T09:50:55.215Z,7.36
2024-01-22T09:51:55.190Z,7.34
2024-01-22T09:52:55.163Z,7.37
2024-01-22T09:53:55.337Z,7.36
2024-01-22T09:54:55.241Z,7.35
2024-01-22T09:55:55.234Z,7.33
2024-01-22T09:56:55.250Z,7.31
2024-01-22T09:57:55.216Z,7.29
2024-01-22T09:58:55.308Z,7.29
2024-01-22T09:59:57.304Z,7.26
2024-01-22T10:00:55.345Z,7.25
2024-01-22T10:01:55.341Z,7.23
2024-01-22T10:02:55.379Z,7.20
2024-01-22T10:03:55.327Z,7.19
2024-01-22T10:04:55.312Z,7.16
2024-01-22T10:05:55.961Z,7.15
2024-01-22T10:06:55.464Z,7.14
2024-01-22T10:07:55.363Z,7.13
2024-01-22T10:08:55.450Z,7.10
2024-01-22T10:09:55.424Z,7.08
2024-01-22T10:10:55.393Z,7.07
2024-01-22T10:11:55.431Z,7.05
2024-01-22T10:12:55.434Z,7.05
2024-01-22T10:13:55.490Z,7.08
2024-01-22T10:14:55.458Z,7.08
2024-01-22T10:15:55.471Z,7.06
2024-01-22T10:16:55.532Z,7.06
2024-01-22T10:17:55.599Z,7.03
2024-01-22T10:18:55.577Z,7.00
2024-01-22T10:19:55.667Z,6.97
2024-01-22T10:20:55.551Z,7.01
2024-01-22T10:21:55.561Z,7.01
2024-01-22T10:22:55.548Z,7.00
2024-01-22T10:23:55.621Z,6.99
2024-01-22T10:24:55.637Z,7.00
2024-01-22T10:25:55.578Z,7.01
2024-01-22T10:26:55.629Z,7.04
2024-01-22T10:27:55.617Z,7.04
2024-01-22T10:28:55.788Z,7.04
2024-01-22T10:29:55.665Z,7.04
2024-01-22T10:30:55.636Z,7.04
2024-01-22T10:31:55.643Z,7.03
2024-01-22T10:32:55.741Z,7.02
2024-01-22T10:33:55.758Z,7.04
2024-01-22T10:34:55.703Z,7.03
2024-01-22T10:35:55.731Z,7.06
2024-01-22T10:36:55.699Z,7.06
2024-01-22T10:37:55.728Z,7.06
2024-01-22T10:38:55.764Z,7.04
2024-01-22T10:39:55.780Z,7.03
2024-01-22T10:40:55.788Z,7.04
2024-01-22T10:41:57.040Z,7.03
2024-01-22T10:42:55.820Z,7.04
2024-01-22T10:43:55.821Z,7.05
2024-01-22T10:44:55.905Z,7.05
2024-01-22T10:45:55.815Z,7.03
2024-01-22T10:46:56.067Z,7.04
2024-01-22T10:47:58.384Z,7.04
2024-01-22T10:48:55.885Z,7.03
2024-01-22T10:49:55.961Z,7.01
2024-01-22T10:50:55.912Z,7.00
2024-01-22T10:51:55.853Z,6.95
2024-01-22T10:52:55.858Z,6.94
2024-01-22T10:53:55.896Z,6.93
2024-01-22T10:54:55.843Z,6.90
2024-01-22T10:55:55.887Z,6.88
2024-01-22T10:56:55.873Z,6.84
2024-01-22T10:57:56.117Z,6.84
2024-01-22T10:58:55.889Z,6.83
2024-01-22T10:59:55.875Z,6.82
2024-01-22T11:00:55.915Z,6.82
2024-01-22T11:01:55.917Z,6.81
2024-01-22T11:02:55.954Z,6.80
2024-01-22T11:03:57.905Z,6.83
2024-01-22T11:04:55.871Z,6.83
2024-01-22T11:05:55.961Z,6.81
2024-01-22T11:06:55.901Z,6.81
2024-01-22T11:07:55.890Z,6.80
2024-01-22T11:08:56.188Z,6.80
2024-01-22T11:09:58.967Z,6.80
2024-01-22T11:10:55.882Z,6.80
2024-01-22T11:11:55.925Z,6.79
2024-01-22T11:12:55.891Z,6.79
2024-01-22T11:13:55.899Z,6.78
2024-01-22T11:14:55.953Z,6.77
2024-01-22T11:15:55.886Z,6.80
2024-01-22T11:16:55.894Z,6.82
2024-01-22T11:17:56.008Z,6.80
2024-01-22T11:18:56.022Z,6.80
2024-01-22T11:19:55.909Z,6.80
2024-01-22T11:20:55.973Z,6.79
2024-01-22T11:21:57.251Z,6.76
2024-01-22T11:22:55.870Z,6.74
2024-01-22T11:23:55.907Z,6.74
2024-01-22T11:24:55.879Z,6.72
2024-01-22T11:25:55.871Z,6.72
2024-01-22T11:26:55.882Z,6.71
2024-01-22T11:27:56.789Z,6.71
2024-01-22T11:28:55.886Z,6.71
2024-01-22T11:29:55.930Z,6.70
2024-01-22T11:30:55.875Z,6.71
2024-01-22T11:31:55.892Z,6.70
2024-01-22T11:32:55.988Z,6.71
2024-01-22T11:33:57.505Z,6.72
2024-01-22T11:34:56.020Z,6.74
2024-01-22T11:35:55.908Z,6.73
2024-01-22T11:36:55.938Z,6.73
2024-01-22T11:37:55.952Z,6.73
2024-01-22T11:38:55.928Z,6.73
2024-01-22T11:39:56.853Z,6.74
2024-01-22T11:40:55.976Z,6.73
2024-01-22T11:41:55.910Z,6.71
2024-01-22T11:42:55.908Z,6.71
2024-01-22T11:43:55.908Z,6.69
2024-01-22T11:44:55.929Z,6.70
2024-01-22T11:45:57.127Z,6.69
2024-01-22T11:46:55.884Z,6.70
2024-01-22T11:47:56.043Z,6.71
2024-01-22T11:48:56.137Z,6.73
2024-01-22T11:49:55.925Z,6.69
2024-01-22T11:50:55.941Z,6.72
2024-01-22T11:51:55.910Z,6.75
2024-01-22T11:52:55.873Z,6.77
2024-01-22T11:53:56.925Z,6.77
2024-01-22T11:54:55.952Z,6.79
2024-01-22T11:55:55.938Z,6.80
2024-01-22T11:56:55.954Z,6.78
2024-01-22T11:57:55.892Z,6.80
2024-01-22T11:58:55.918Z,6.81
2024-01-22T11:59:56.029Z,6.82
2024-01-22T12:00:55.923Z,6.84
2024-01-22T12:01:56.500Z,6.85
2024-01-22T12:02:55.938Z,6.86
2024-01-22T12:03:57.727Z,6.87
2024-01-22T12:04:55.904Z,6.87
2024-01-22T12:05:56.148Z,6.86
2024-01-22T12:06:56.001Z,6.86
2024-01-22T12:07:57.758Z,6.87
2024-01-22T12:08:55.986Z,6.89
2024-01-22T12:09:55.960Z,6.90
2024-01-22T12:10:55.915Z,6.89
2024-01-22T12:11:56.033Z,6.94
2024-01-22T12:12:55.933Z,6.93
2024-01-22T12:13:57.879Z,6.96
2024-01-22T12:14:56.071Z,6.99
2024-01-22T12:15:56.024Z,7.01
2024-01-22T12:16:56.094Z,7.01
2024-01-22T12:17:56.121Z,7.01
2024-01-22T12:18:56.173Z,7.04
2024-01-22T12:19:58.607Z,7.06
2024-01-22T12:20:56.105Z,7.08
2024-01-22T12:21:56.040Z,7.09
2024-01-22T12:22:56.065Z,7.14
2024-01-22T12:23:56.065Z,7.17
2024-01-22T12:24:56.104Z,7.19
2024-01-22T12:26:00.578Z,7.21
2024-01-22T12:26:56.185Z,7.25
2024-01-22T12:27:56.035Z,7.26
2024-01-22T12:28:56.105Z,7.28
2024-01-22T12:29:56.119Z,7.30
2024-01-22T12:30:56.028Z,7.36
2024-01-22T12:31:56.075Z,7.39
2024-01-22T12:32:56.312Z,7.38
2024-01-22T12:33:56.113Z,7.38
2024-01-22T12:34:56.220Z,7.42
2024-01-22T12:35:56.116Z,7.44
2024-01-22T12:36:56.073Z,7.47
2024-01-22T12:37:56.057Z,7.53
2024-01-22T12:38:56.170Z,7.55
2024-01-22T12:39:56.080Z,7.57
2024-01-22T12:40:56.066Z,7.60
2024-01-22T12:41:56.120Z,7.59
2024-01-22T12:42:56.088Z,7.62
2024-01-22T12:43:56.076Z,7.60
2024-01-22T12:44:56.139Z,7.61
2024-01-22T12:45:56.153Z,7.59
2024-01-22T12:46:56.100Z,7.60
2024-01-22T12:47:56.213Z,7.61
2024-01-22T12:48:56.187Z,7.61
2024-01-22T12:49:56.242Z,7.61
2024-01-22T12:50:56.104Z,7.63
2024-01-22T12:51:56.089Z,7.64
2024-01-22T12:52:56.070Z,7.67
2024-01-22T12:53:56.113Z,7.67
2024-01-22T12:54:56.104Z,7.79
2024-01-22T12:55:56.070Z,7.88
2024-01-22T12:56:56.140Z,7.95
2024-01-22T12:57:56.095Z,7.98
2024-01-22T12:58:56.101Z,7.98
2024-01-22T12:59:56.080Z,8.00
2024-01-22T13:00:56.103Z,8.04
2024-01-22T13:01:56.089Z,8.08
2024-01-22T13:02:56.159Z,8.09
2024-01-22T13:03:56.208Z,8.10
2024-01-22T13:04:56.089Z,8.12
2024-01-22T13:05:56.181Z,8.13
2024-01-22T13:06:56.170Z,8.15
2024-01-22T13:07:56.099Z,8.16
2024-01-22T13:08:56.166Z,8.18
2024-01-22T13:09:56.078Z,8.25
2024-01-22T13:10:56.122Z,8.29
2024-01-22T13:11:56.136Z,8.32
2024-01-22T13:12:56.115Z,8.35
2024-01-22T13:13:56.137Z,8.38
2024-01-22T13:14:56.186Z,8.41
2024-01-22T13:16:11.547Z,8.42
2024-01-22T13:16:56.123Z,8.47
2024-01-22T13:17:56.188Z,8.51
2024-01-22T13:18:56.301Z,8.46
2024-01-22T13:19:56.159Z,8.45
2024-01-22T13:20:56.139Z,8.43